createdAt,value
2023-01-08T00:00:30.577Z,5.70
2023-01-08T00:02:58.704Z,5.70
2023-01-08T00:05:26.630Z,5.70
2023-01-08T00:07:54.664Z,5.70
2023-01-08T00:10:22.618Z,5.70
2023-01-08T00:12:50.654Z,5.70
2023-01-08T00:15:18.727Z,5.80
2023-01-08T00:17:48.217Z,5.80
2023-01-08T00:20:16.297Z,5.90
2023-01-08T00:22:44.149Z,6.00
2023-01-08T00:25:12.063Z,6.00
2023-01-08T00:27:39.962Z,6.00
2023-01-08T00:30:09.204Z,6.00
2023-01-08T00:32:37.178Z,6.00
2023-01-08T00:35:07.583Z,5.90
2023-01-08T00:37:35.506Z,5.90
2023-01-08T00:40:05.490Z,6.00
2023-01-08T00:42:33.392Z,5.90
2023-01-08T00:45:01.286Z,5.90
2023-01-08T00:47:29.146Z,5.90
2023-01-08T00:49:57.012Z,5.80
2023-01-08T00:52:26.737Z,5.70
2023-01-08T00:54:54.578Z,5.70
2023-01-08T00:57:22.504Z,5.60
2023-01-08T00:59:50.438Z,5.60
2023-01-08T01:02:18.444Z,5.50
2023-01-08T01:04:46.363Z,5.50
2023-01-08T01:07:14.517Z,5.50
2023-01-08T01:09:43.818Z,5.40
2023-01-08T01:12:11.909Z,5.40
2023-01-08T01:14:39.888Z,5.30
2023-01-08T01:17:07.848Z,5.20
2023-01-08T01:19:35.716Z,5.20
2023-01-08T01:22:03.846Z,5.10
2023-01-08T01:24:32.002Z,5.00
2023-01-08T01:27:01.813Z,4.90
2023-01-08T01:29:29.714Z,4.90
2023-01-08T01:31:59.041Z,4.90
2023-01-08T01:34:26.924Z,4.90
2023-01-08T01:36:54.851Z,4.80
2023-01-08T01:39:23.193Z,4.80
2023-01-08T01:41:51.152Z,4.70
2023-01-08T01:44:42.322Z,4.70
2023-01-08T01:47:21.864Z,4.70
2023-01-08T01:49:55.308Z,4.60
2023-01-08T01:52:25.203Z,4.60
2023-01-08T01:54:53.730Z,4.60
2023-01-08T01:57:22.084Z,4.60
2023-01-08T01:59:51.675Z,4.60
2023-01-08T02:02:22.073Z,4.70
2023-01-08T02:04:51.273Z,4.80
2023-01-08T02:07:27.042Z,4.80
2023-01-08T02:09:58.655Z,4.90
2023-01-08T02:12:32.310Z,5.00
2023-01-08T02:15:14.187Z,5.00
2023-01-08T02:17:49.188Z,5.00
2023-01-08T02:20:22.090Z,5.10
2023-01-08T02:23:09.873Z,5.20
2023-01-08T02:25:52.070Z,5.10
2023-01-08T02:28:21.064Z,5.00
2023-01-08T02:30:49.727Z,5.00
2023-01-08T02:33:35.105Z,4.80
2023-01-08T02:36:27.316Z,4.90
2023-01-08T02:39:12.006Z,5.00
2023-01-08T02:41:52.945Z,5.00
2023-01-08T02:44:27.925Z,5.10
2023-01-08T02:46:58.031Z,5.20
2023-01-08T02:49:31.774Z,5.10
2023-01-08T02:52:04.219Z,5.10
2023-01-08T02:54:35.028Z,5.20
2023-01-08T02:57:09.391Z,5.40
2023-01-08T02:59:38.157Z,5.60
2023-01-08T03:02:07.286Z,5.80
2023-01-08T03:04:40.464Z,6.00
2023-01-08T03:07:08.425Z,6.10
2023-01-08T03:09:37.248Z,6.20
2023-01-08T03:12:12.939Z,6.20
2023-01-08T03:14:45.837Z,6.30
2023-01-08T03:17:19.224Z,6.40
2023-01-08T03:19:52.457Z,6.60
2023-01-08T03:22:21.184Z,6.60
2023-01-08T03:24:53.063Z,6.60
2023-01-08T03:27:26.135Z,6.70
2023-01-08T03:29:57.079Z,6.70
2023-01-08T03:32:26.679Z,6.60
2023-01-08T03:34:56.825Z,6.50
2023-01-08T03:37:29.484Z,6.30
2023-01-08T03:40:00.263Z,6.30
2023-01-08T03:42:31.582Z,6.10
2023-01-08T03:44:59.744Z,6.10
2023-01-08T03:47:30.534Z,6.00
2023-01-08T03:50:03.343Z,6.00
2023-01-08T03:52:32.892Z,5.80
2023-01-08T03:55:01.029Z,5.70
2023-01-08T03:57:30.247Z,5.70
2023-01-08T03:59:58.117Z,5.70
2023-01-08T04:02:26.158Z,5.70
2023-01-08T04:04:54.098Z,5.80
2023-01-08T04:07:22.554Z,5.80
2023-01-08T04:09:50.421Z,5.80
2023-01-08T04:12:18.241Z,5.70
2023-01-08T04:14:47.747Z,5.50
2023-01-08T04:17:15.744Z,5.40
2023-01-08T04:19:43.852Z,5.30
2023-01-08T04:22:12.231Z,5.20
2023-01-08T04:24:40.150Z,5.10
2023-01-08T04:27:08.125Z,5.00
2023-01-08T04:29:36.029Z,4.80
2023-01-08T04:32:05.596Z,4.70
2023-01-08T04:34:33.486Z,4.60
2023-01-08T04:37:01.948Z,4.50
2023-01-08T04:39:31.351Z,4.50
2023-01-08T04:41:59.204Z,4.40
2023-01-08T04:44:27.176Z,4.40
2023-01-08T04:46:55.092Z,4.40
2023-01-08T04:49:24.578Z,4.50
2023-01-08T04:51:52.453Z,4.50
2023-01-08T04:54:20.561Z,4.60
2023-01-08T04:56:51.367Z,4.60
2023-01-08T04:59:19.555Z,4.70
2023-01-08T05:01:47.551Z,4.70
2023-01-08T05:04:15.551Z,4.80
2023-01-08T05:06:44.778Z,5.00
2023-01-08T05:09:12.836Z,5.00
2023-01-08T05:11:40.743Z,5.00
2023-01-08T05:14:09.739Z,5.00
2023-01-08T05:16:37.675Z,5.10
2023-01-08T05:19:05.815Z,5.00
2023-01-08T05:21:33.868Z,5.00
2023-01-08T05:24:03.177Z,5.00
2023-01-08T05:26:31.064Z,5.00
2023-01-08T05:28:59.139Z,5.00
2023-01-08T05:31:27.463Z,5.10
2023-01-08T05:33:55.424Z,5.20
2023-01-08T05:36:23.270Z,5.20
2023-01-08T05:38:51.308Z,5.20
2023-01-08T05:41:20.521Z,5.30
2023-01-08T05:43:48.414Z,5.40
2023-01-08T05:46:16.313Z,5.30
2023-01-08T05:48:44.325Z,5.40
2023-01-08T05:51:12.448Z,5.30
2023-01-08T05:53:40.581Z,5.30
2023-01-08T05:56:11.395Z,5.30
2023-01-08T05:58:40.622Z,5.40
2023-01-08T06:01:11.248Z,5.20
2023-01-08T06:03:39.943Z,5.10
2023-01-08T06:06:09.013Z,4.90
2023-01-08T06:08:36.930Z,4.80
2023-01-08T06:11:07.574Z,4.80
2023-01-08T06:13:38.130Z,4.70
2023-01-08T06:16:08.531Z,4.70
2023-01-08T06:18:37.106Z,4.60
2023-01-08T06:21:05.426Z,4.70
2023-01-08T06:23:33.767Z,4.80
2023-01-08T06:26:04.103Z,4.80
2023-01-08T06:28:33.055Z,4.80
2023-01-08T06:31:01.352Z,4.90
2023-01-08T06:33:31.814Z,5.00
2023-01-08T06:36:02.220Z,5.00
2023-01-08T06:38:32.593Z,5.00
2023-01-08T06:41:00.431Z,5.00
2023-01-08T06:43:28.309Z,5.00
2023-01-08T06:45:58.381Z,5.10
2023-01-08T06:48:27.071Z,5.10
2023-01-08T06:50:56.317Z,5.20
2023-01-08T06:53:24.868Z,5.30
2023-01-08T06:55:56.996Z,5.50
2023-01-08T06:58:25.783Z,5.50
2023-01-08T07:00:53.828Z,5.60
2023-01-08T07:03:21.841Z,5.60
2023-01-08T07:05:50.724Z,5.60
2023-01-08T07:08:20.288Z,5.70
2023-01-08T07:10:48.358Z,5.70
2023-01-08T07:13:16.689Z,5.70
2023-01-08T07:15:44.592Z,5.60
2023-01-08T07:18:13.564Z,5.60
2023-01-08T07:20:41.584Z,5.60
2023-01-08T07:23:12.357Z,5.60
2023-01-08T07:25:41.668Z,5.50
2023-01-08T07:28:12.641Z,5.50
2023-01-08T07:30:40.756Z,5.40
2023-01-08T07:33:08.729Z,5.50
2023-01-08T07:35:38.349Z,5.60
2023-01-08T07:38:06.803Z,5.60
2023-01-08T07:40:34.665Z,5.60
2023-01-08T07:43:05.410Z,5.60
2023-01-08T07:45:33.483Z,5.60
2023-01-08T07:48:01.826Z,5.70
2023-01-08T07:50:29.901Z,5.80
2023-01-08T07:53:01.963Z,5.80
2023-01-08T07:55:31.700Z,5.90
2023-01-08T07:57:59.880Z,6.00
2023-01-08T08:00:29.121Z,6.00
2023-01-08T08:02:57.129Z,6.00
2023-01-08T08:05:25.106Z,6.10
2023-01-08T08:07:53.029Z,6.20
2023-01-08T08:10:20.943Z,6.20
2023-01-08T08:12:49.043Z,6.20
2023-01-08T08:15:17.097Z,6.20
2023-01-08T08:17:47.953Z,6.20
2023-01-08T08:20:16.598Z,6.20
2023-01-08T08:22:44.683Z,6.20
2023-01-08T08:25:15.116Z,6.10
2023-01-08T08:27:43.688Z,6.10
2023-01-08T08:30:13.212Z,6.10
2023-01-08T08:32:41.325Z,6.20
2023-01-08T08:35:11.060Z,6.10
2023-01-08T08:37:38.929Z,6.10
2023-01-08T08:40:08.079Z,6.10
2023-01-08T08:42:36.044Z,6.10
2023-01-08T08:45:04.261Z,6.20
2023-01-08T08:47:32.147Z,6.20
2023-01-08T08:49:59.996Z,6.30
2023-01-08T08:52:30.491Z,6.40
2023-01-08T08:54:58.296Z,6.50
2023-01-08T08:57:26.955Z,6.50
2023-01-08T08:59:54.925Z,6.60
2023-01-08T09:02:23.014Z,6.60
2023-01-08T09:04:51.026Z,6.60
2023-01-08T09:07:18.913Z,6.60
2023-01-08T09:09:48.081Z,6.60
2023-01-08T09:12:15.936Z,6.70
2023-01-08T09:14:43.815Z,6.70
2023-01-08T09:17:11.984Z,6.70
2023-01-08T09:19:39.824Z,6.80
2023-01-08T09:22:07.712Z,6.70
2023-01-08T09:24:35.895Z,6.70
2023-01-08T09:27:05.259Z,6.70
2023-01-08T09:29:33.451Z,6.70
2023-01-08T09:32:02.151Z,6.80
2023-01-08T09:34:31.801Z,6.80
2023-01-08T09:36:59.686Z,6.90
2023-01-08T09:39:27.715Z,6.90
2023-01-08T09:41:58.477Z,7.00
2023-01-08T09:44:31.323Z,7.00
2023-01-08T09:47:00.881Z,7.00
2023-01-08T09:49:38.701Z,7.00
2023-01-08T09:52:06.824Z,7.10
2023-01-08T09:54:34.657Z,7.00
2023-01-08T09:57:02.653Z,7.00
2023-01-08T09:59:32.451Z,7.10
2023-01-08T10:02:00.588Z,7.10
2023-01-08T10:04:31.254Z,7.10
2023-01-08T10:07:07.117Z,7.10
2023-01-08T10:09:35.149Z,7.20
2023-01-08T10:12:06.110Z,7.30
2023-01-08T10:14:37.663Z,7.30
2023-01-08T10:17:11.671Z,7.40
2023-01-08T10:19:40.007Z,7.40
2023-01-08T10:22:13.380Z,7.40
2023-01-08T10:24:41.212Z,7.50
2023-01-08T10:27:11.084Z,7.50
2023-01-08T10:29:40.824Z,7.50
2023-01-08T10:32:17.037Z,7.50
2023-01-08T10:34:48.495Z,7.50
2023-01-08T10:37:26.893Z,7.50
2023-01-08T10:39:57.405Z,7.60
2023-01-08T10:42:25.692Z,7.50
2023-01-08T10:44:59.283Z,7.50
2023-01-08T10:47:31.123Z,7.50
2023-01-08T10:50:00.897Z,7.50
2023-01-08T10:52:32.737Z,7.50
2023-01-08T10:55:13.945Z,7.50
2023-01-08T10:57:42.790Z,7.60
2023-01-08T11:00:27.505Z,7.60
2023-01-08T11:02:56.529Z,7.60
2023-01-08T11:05:32.333Z,7.60
2023-01-08T11:08:02.795Z,7.70
2023-01-08T11:10:31.302Z,7.70
2023-01-08T11:13:01.143Z,7.70
2023-01-08T11:15:33.908Z,7.80
2023-01-08T11:18:14.012Z,7.80
2023-01-08T11:20:42.422Z,7.80
2023-01-08T11:23:17.591Z,7.80
2023-01-08T11:25:48.677Z,7.80
2023-01-08T11:28:22.333Z,7.90
2023-01-08T11:30:56.463Z,7.90
2023-01-08T11:33:30.318Z,8.00
2023-01-08T11:36:03.195Z,8.00
2023-01-08T11:38:31.127Z,8.10
2023-01-08T11:41:10.698Z,8.20
2023-01-08T11:43:48.669Z,8.20
2023-01-08T11:46:35.004Z,8.30
2023-01-08T11:49:27.649Z,8.30
2023-01-08T11:52:14.582Z,8.30
2023-01-08T11:54:56.946Z,8.40
2023-01-08T11:57:38.687Z,8.40
2023-01-08T12:00:25.294Z,8.30
2023-01-08T12:02:56.849Z,8.30
2023-01-08T12:05:29.733Z,8.30
2023-01-08T12:08:06.647Z,8.30
2023-01-08T12:10:46.395Z,8.30
2023-01-08T12:13:26.263Z,8.30
2023-01-08T12:16:07.535Z,8.40
2023-01-08T12:18:58.689Z,8.30
2023-01-08T12:21:32.709Z,8.30
2023-01-08T12:24:15.225Z,8.20
2023-01-08T12:26:51.557Z,8.20
2023-01-08T12:29:42.922Z,8.20
2023-01-08T12:32:24.327Z,8.30
2023-01-08T12:34:59.882Z,8.30
2023-01-08T12:37:34.705Z,8.30
2023-01-08T12:40:07.539Z,8.30
2023-01-08T12:42:42.710Z,8.10
2023-01-08T12:45:19.497Z,8.10
2023-01-08T12:47:50.620Z,8.00
2023-01-08T12:50:48.344Z,8.00
2023-01-08T12:53:26.659Z,8.00
2023-01-08T12:56:31.883Z,8.00
2023-01-08T12:59:15.698Z,7.90
2023-01-08T13:01:50.265Z,8.00
2023-01-08T13:04:18.729Z,7.90
2023-01-08T13:06:57.643Z,7.90
2023-01-08T13:09:29.427Z,7.90
2023-01-08T13:12:00.285Z,7.80
2023-01-08T13:14:29.078Z,7.80
2023-01-08T13:17:06.043Z,7.70
2023-01-08T13:19:41.788Z,7.70
2023-01-08T13:22:23.065Z,7.70
2023-01-08T13:24:52.769Z,7.70
2023-01-08T13:27:38.643Z,7.60
2023-01-08T13:30:34.752Z,7.50
2023-01-08T13:33:03.480Z,7.50
2023-01-08T13:35:32.248Z,7.50
2023-01-08T13:38:14.832Z,7.50
2023-01-08T13:40:57.873Z,7.40
2023-01-08T13:43:30.419Z,7.40
2023-01-08T13:46:15.631Z,7.30
2023-01-08T13:48:51.762Z,7.20
2023-01-08T13:51:33.646Z,7.20
2023-01-08T13:54:09.488Z,7.20
2023-01-08T13:56:38.890Z,7.20
2023-01-08T13:59:07.286Z,7.10
2023-01-08T14:01:35.525Z,7.20
2023-01-08T14:04:03.608Z,7.20
2023-01-08T14:06:34.894Z,7.20
2023-01-08T14:09:04.723Z,7.20
2023-01-08T14:11:47.811Z,7.20
2023-01-08T14:14:19.010Z,7.20
2023-01-08T14:16:48.036Z,7.10
2023-01-08T14:19:18.925Z,7.10
2023-01-08T14:21:48.847Z,7.10
2023-01-08T14:24:18.469Z,7.10
2023-01-08T14:26:53.323Z,7.10
2023-01-08T14:29:24.128Z,7.00
2023-01-08T14:31:54.163Z,7.00
2023-01-08T14:34:23.995Z,7.00
2023-01-08T14:36:53.532Z,7.00
2023-01-08T14:39:24.739Z,6.90
2023-01-08T14:42:13.819Z,6.90
2023-01-08T14:44:46.119Z,6.90
2023-01-08T14:47:20.118Z,6.90
2023-01-08T14:49:52.548Z,6.80
2023-01-08T14:52:21.283Z,6.80
2023-01-08T14:54:54.439Z,6.80
2023-01-08T14:57:24.237Z,6.90
2023-01-08T14:59:56.962Z,6.90
2023-01-08T15:02:29.217Z,6.90
2023-01-08T15:05:13.919Z,6.90
2023-01-08T15:07:44.823Z,6.90
2023-01-08T15:10:37.755Z,6.90
2023-01-08T15:13:08.482Z,6.80
2023-01-08T15:15:50.410Z,6.80
2023-01-08T15:18:19.213Z,6.70
2023-01-08T15:20:47.203Z,6.70
2023-01-08T15:23:28.345Z,6.60
2023-01-08T15:25:57.891Z,6.60
2023-01-08T15:28:26.782Z,6.50
2023-01-08T15:30:58.148Z,6.50
2023-01-08T15:33:27.342Z,6.40
2023-01-08T15:35:55.641Z,6.30
2023-01-08T15:38:23.998Z,6.30
2023-01-08T15:40:53.372Z,6.30
2023-01-08T15:43:20.492Z,6.40
2023-01-08T15:45:50.071Z,6.50
2023-01-08T15:48:19.432Z,6.40
2023-01-08T15:50:47.367Z,6.50
2023-01-08T15:53:19.514Z,6.50
2023-01-08T15:55:47.666Z,6.50
2023-01-08T15:58:16.617Z,6.50
2023-01-08T16:00:46.658Z,6.60
2023-01-08T16:03:15.631Z,6.60
2023-01-08T16:05:45.006Z,6.60
2023-01-08T16:08:13.105Z,6.60
2023-01-08T16:10:41.215Z,6.60
2023-01-08T16:13:12.194Z,6.60
2023-01-08T16:15:40.997Z,6.60
2023-01-08T16:18:09.112Z,6.60
2023-01-08T16:20:37.216Z,6.60
2023-01-08T16:23:06.576Z,6.60
2023-01-08T16:25:34.554Z,6.50
2023-01-08T16:28:03.268Z,6.50
2023-01-08T16:30:31.271Z,6.50
2023-01-08T16:32:59.256Z,6.50
2023-01-08T16:35:27.317Z,6.50
2023-01-08T16:37:56.547Z,6.60
2023-01-08T16:40:25.881Z,6.60
2023-01-08T16:42:53.937Z,6.60
2023-01-08T16:45:21.912Z,6.60
2023-01-08T16:47:50.120Z,6.60
2023-01-08T16:50:18.309Z,6.60
2023-01-08T16:52:46.374Z,6.60
2023-01-08T16:55:14.277Z,6.50
2023-01-08T16:57:43.828Z,6.40
2023-01-08T17:00:13.182Z,6.30
2023-01-08T17:02:41.112Z,6.30
2023-01-08T17:05:09.600Z,6.30
2023-01-08T17:07:37.520Z,6.20
2023-01-08T17:10:06.379Z,6.20
2023-01-08T17:12:34.297Z,6.20
2023-01-08T17:15:03.695Z,6.10
2023-01-08T17:17:31.575Z,6.10
2023-01-08T17:19:59.429Z,6.10
2023-01-08T17:22:27.628Z,6.10
2023-01-08T17:24:55.635Z,6.10
2023-01-08T17:27:23.564Z,6.00
2023-01-08T17:29:51.435Z,6.00
2023-01-08T17:32:21.660Z,6.00
2023-01-08T17:34:49.680Z,5.90
2023-01-08T17:37:17.753Z,5.90
2023-01-08T17:39:45.930Z,5.90
2023-01-08T17:42:27.504Z,5.90
2023-01-08T17:44:57.182Z,5.70
2023-01-08T17:47:27.605Z,5.70
2023-01-08T17:49:57.403Z,5.70
2023-01-08T17:52:26.742Z,5.60
2023-01-08T17:54:54.855Z,5.60
2023-01-08T17:57:22.867Z,5.50
2023-01-08T17:59:50.829Z,5.50
2023-01-08T18:02:19.489Z,5.40
2023-01-08T18:04:49.059Z,5.40
2023-01-08T18:07:17.037Z,5.30
2023-01-08T18:09:45.181Z,5.20
2023-01-08T18:12:13.233Z,5.20
2023-01-08T18:14:41.979Z,5.20
2023-01-08T18:17:09.829Z,5.30
2023-01-08T18:19:37.826Z,5.30
2023-01-08T18:22:07.246Z,5.30
2023-01-08T18:24:35.274Z,5.30
2023-01-08T18:27:03.827Z,5.30
2023-01-08T18:29:31.882Z,5.30
2023-01-08T18:31:59.836Z,5.40
2023-01-08T18:34:27.846Z,5.40
2023-01-08T18:36:55.797Z,5.50
2023-01-08T18:39:26.592Z,5.50
2023-01-08T18:42:11.859Z,5.50
2023-01-08T18:44:39.933Z,5.40
2023-01-08T18:47:07.962Z,5.50
2023-01-08T18:49:36.156Z,5.50
2023-01-08T18:52:04.358Z,5.50
2023-01-08T18:54:35.299Z,5.60
2023-01-08T18:57:03.396Z,5.60
2023-01-08T18:59:31.372Z,5.50
2023-01-08T19:01:59.539Z,5.60
2023-01-08T19:04:27.652Z,5.60
2023-01-08T19:06:55.810Z,5.60
2023-01-08T19:09:23.879Z,5.70
2023-01-08T19:11:53.208Z,5.70
2023-01-08T19:14:21.074Z,5.70
2023-01-08T19:16:51.460Z,5.70
2023-01-08T19:19:20.862Z,5.80
2023-01-08T19:21:49.142Z,5.80
2023-01-08T19:24:17.339Z,5.80
2023-01-08T19:26:45.330Z,5.80
2023-01-08T19:29:14.737Z,5.90
2023-01-08T19:31:42.802Z,5.90
2023-01-08T19:34:11.742Z,5.90
2023-01-08T19:36:43.673Z,5.80
2023-01-08T19:39:12.539Z,5.80
2023-01-08T19:41:58.425Z,5.80
2023-01-08T19:44:27.755Z,5.80
2023-01-08T19:46:55.799Z,5.80
2023-01-08T19:49:25.619Z,5.90
2023-01-08T19:51:53.989Z,5.90
2023-01-08T19:54:25.804Z,5.90
2023-01-08T19:56:54.366Z,5.90
2023-01-08T19:59:22.773Z,5.90
2023-01-08T20:01:52.238Z,5.90
2023-01-08T20:04:20.404Z,5.90
2023-01-08T20:06:49.273Z,5.90
2023-01-08T20:09:17.390Z,5.80
2023-01-08T20:11:45.434Z,5.80
2023-01-08T20:14:13.676Z,5.90
2023-01-08T20:16:42.165Z,5.90
2023-01-08T20:19:11.654Z,5.70
2023-01-08T20:21:39.581Z,5.70
2023-01-08T20:24:11.595Z,5.60
2023-01-08T20:26:40.118Z,5.50
2023-01-08T20:29:08.316Z,5.40
2023-01-08T20:31:37.041Z,5.20
2023-01-08T20:34:09.640Z,5.10
2023-01-08T20:36:39.531Z,5.00
2023-01-08T20:39:09.595Z,5.00
2023-01-08T20:41:37.531Z,4.90
2023-01-08T20:44:06.867Z,4.90
2023-01-08T20:46:36.914Z,4.90
2023-01-08T20:49:07.488Z,4.80
2023-01-08T20:51:39.773Z,4.80
2023-01-08T20:54:12.015Z,4.70
2023-01-08T20:56:41.091Z,4.60
2023-01-08T20:59:09.041Z,4.50
2023-01-08T21:01:37.455Z,4.50
2023-01-08T21:04:08.359Z,4.40
2023-01-08T21:06:38.131Z,4.40
2023-01-08T21:09:08.417Z,4.30
2023-01-08T21:11:38.429Z,4.30
2023-01-08T21:14:07.979Z,4.30
2023-01-08T21:16:37.155Z,4.10
2023-01-08T21:19:05.183Z,4.10
2023-01-08T21:21:35.624Z,4.00
2023-01-08T21:24:08.909Z,4.10
2023-01-08T21:26:37.895Z,4.20
2023-01-08T21:29:07.158Z,4.20
2023-01-08T21:31:35.749Z,4.20
2023-01-08T21:34:06.218Z,4.20
2023-01-08T21:36:34.414Z,4.20
2023-01-08T21:39:04.482Z,4.40
2023-01-08T21:41:50.625Z,4.60
2023-01-08T21:44:52.192Z,4.60
2023-01-08T21:47:46.157Z,4.60
2023-01-08T21:50:14.237Z,4.60
2023-01-08T21:52:59.708Z,4.60
2023-01-08T21:55:29.080Z,4.60
2023-01-08T21:57:57.213Z,4.70
2023-01-08T22:00:26.011Z,4.70
2023-01-08T22:02:54.008Z,4.80
2023-01-08T22:05:22.002Z,4.90
2023-01-08T22:07:49.882Z,5.00
2023-01-08T22:10:18.487Z,5.00
2023-01-08T22:12:48.684Z,5.10
2023-01-08T22:15:16.776Z,5.00
2023-01-08T22:17:44.725Z,5.00
2023-01-08T22:20:13.351Z,5.10
2023-01-08T22:22:42.537Z,5.10
2023-01-08T22:25:10.818Z,5.00
2023-01-08T22:27:38.833Z,4.90
2023-01-08T22:30:09.903Z,4.80
2023-01-08T22:32:37.830Z,4.70
2023-01-08T22:35:06.411Z,4.70
2023-01-08T22:37:36.675Z,4.70
2023-01-08T22:40:05.190Z,4.70
2023-01-08T22:42:33.361Z,4.60
2023-01-08T22:45:01.414Z,4.60
2023-01-08T22:47:30.670Z,4.70
2023-01-08T22:49:58.817Z,4.60
2023-01-08T22:52:26.744Z,4.60
2023-01-08T22:54:56.412Z,4.60
2023-01-08T22:57:24.381Z,4.70
2023-01-08T22:59:56.252Z,4.60
2023-01-08T23:02:24.907Z,4.60
2023-01-08T23:04:55.118Z,4.60
2023-01-08T23:07:22.974Z,4.70
2023-01-08T23:09:50.972Z,4.80
2023-01-08T23:12:19.006Z,5.00
2023-01-08T23:14:47.333Z,5.10
2023-01-08T23:17:16.998Z,5.20
2023-01-08T23:19:45.069Z,5.30
2023-01-08T23:22:14.410Z,5.40
2023-01-08T23:24:42.334Z,5.40
2023-01-08T23:27:11.077Z,5.50
2023-01-08T23:29:39.604Z,5.50
2023-01-08T23:32:07.489Z,5.50
2023-01-08T23:34:35.555Z,5.50
2023-01-08T23:37:03.439Z,5.50
2023-01-08T23:39:33.073Z,5.60
2023-01-08T23:42:01.043Z,5.70
2023-01-08T23:44:28.980Z,5.80
2023-01-08T23:46:57.084Z,5.80
2023-01-08T23:49:25.050Z,5.80
2023-01-08T23:51:53.092Z,5.70
2023-01-08T23:54:21.403Z,5.60
2023-01-08T23:56:51.239Z,5.70
2023-01-08T23:59:19.495Z,5.70
